Main page
METAR-TAF:

METAR-TAF

Airports :

Kunming, China

Kunming Changshui International Airport

latitude: 25-01N, longitude: 102-41E, elevation: 1892 m

Current weather observation

The report was made 52 minutes ago, at 11:00 UTC
Wind 6 kt from the North
Temperature 8°C
Humidity 100%
Pressure 1021 hPa
Visibility: 4000 m
Scattered clouds at a height of 500 ft
Scattered clouds at a height of 1600 ft
Overcast at a height of 3000 ft
mist

METAR: ZPPP 201100Z 01003MPS 4000 BR SCT005 SCT016 OVC030 08/08 Q1021 NOSIG

Time: 19:52 (11:52 UTC)

Forecast

The report was made 4 hours and 48 minutes ago, at 07:04 UTC
Forecast valid from 20 at 12 UTC to 21 at 12 UTC
Wind 8 kt from the Northeast
Visibility 10 km or more
Scattered clouds at a height of 2300 ft
Broken clouds at a height of 3300 ft

TAF: ZPPP 200704Z 2012/2112 04004MPS 9999 SCT023 BKN033 TX17/2108Z TN07/2023Z

Weather observations and forecasts of more than 4000 airports (METAR and TAF reports).

The available stations are represented by yellow and red dots on the map.

Hover mouse over dot to see the name of the station.

Then click to see weather observations and forecasts.

To change the map : click on the green buttons with a black cross to zoom in, on the green button with a dash to zoom out, or on the green arrows for adjacent maps.


METAR-TAF: